Time;durP1;ratioP1;P1;durP2;ratioP2;P2;SDS_P1;SDS_P2;PMS_P1;PMS_P2;Temp;Humidity;BMP_temperature;BMP_pressure;BME280_temperature;BME280_humidity;BME280_pressure;Samples;Min_cycle;Max_cycle;Signal;HPM_P1;HPM_P2
2023/07/13 04:22:32;;;;;;;2.33;1.27;;;;;;;15.53;100.00;100299.41;5109877;27;20745;-67
2023/07/13 04:24:58;;;;;;;2.42;1.38;;;;;;;15.54;100.00;100305.59;5109785;28;20043;-67
2023/07/13 04:27:23;;;;;;;1.77;1.40;;;;;;;15.36;100.00;100303.50;5109767;28;20028;-65
2023/07/13 04:29:49;;;;;;;1.73;1.55;;;;;;;15.51;100.00;100304.13;5109521;28;20114;-66
2023/07/13 04:32:14;;;;;;;5.43;3.17;;;;;;;15.47;100.00;100294.84;5108560;28;20042;-67
2023/07/13 04:34:39;;;;;;;1.85;1.27;;;;;;;15.45;100.00;100297.75;5109717;28;20044;-65
2023/07/13 04:37:05;;;;;;;5.95;3.10;;;;;;;15.50;100.00;100301.66;5109617;28;20062;-65
2023/07/13 04:39:30;;;;;;;4.00;2.50;;;;;;;15.53;100.00;100314.69;5109302;28;20450;-67
2023/07/13 04:41:56;;;;;;;4.30;2.88;;;;;;;15.58;100.00;100309.50;5109535;28;20654;-66
2023/07/13 04:44:21;;;;;;;1.95;1.33;;;;;;;15.59;100.00;100309.34;5109557;28;20074;-64
2023/07/13 04:46:47;;;;;;;4.22;2.40;;;;;;;15.71;100.00;100312.25;5109460;28;20406;-67
2023/07/13 04:49:12;;;;;;;4.47;1.67;;;;;;;15.83;100.00;100310.63;5108162;28;20039;-64
2023/07/13 04:51:38;;;;;;;4.68;2.20;;;;;;;15.95;100.00;100316.19;5109475;28;20065;-66
2023/07/13 04:54:04;;;;;;;3.95;2.03;;;;;;;16.11;100.00;100328.41;5109347;28;20036;-66
2023/07/13 04:56:30;;;;;;;2.50;1.60;;;;;;;16.15;100.00;100326.94;5109216;28;20086;-65
2023/07/13 04:58:55;;;;;;;2.95;1.40;;;;;;;16.23;100.00;100322.16;5108938;28;20325;-65
2023/07/13 05:01:21;;;;;;;4.28;2.25;;;;;;;16.28;100.00;100318.88;5109151;28;20043;-65
2023/07/13 05:03:46;;;;;;;1.90;1.40;;;;;;;16.38;100.00;100319.28;5109221;28;20173;-65
2023/07/13 05:06:13;;;;;;;4.15;1.77;;;;;;;16.52;100.00;100320.09;5109095;28;20461;-65
2023/07/13 05:08:39;;;;;;;2.17;1.33;;;;;;;16.59;100.00;100315.50;5108842;28;20051;-69
2023/07/13 05:11:05;;;;;;;2.08;1.35;;;;;;;16.72;100.00;100317.38;5108964;28;20028;-66
2023/07/13 05:13:31;;;;;;;2.70;1.50;;;;;;;16.82;100.00;100315.03;5108915;28;20059;-66
2023/07/13 05:15:59;;;;;;;5.65;1.48;;;;;;;16.89;100.00;100317.72;5108806;28;20448;-61
2023/07/13 05:18:24;;;;;;;1.75;1.20;;;;;;;17.00;100.00;100317.06;5108628;28;20039;-49
2023/07/13 05:21:19;;;;;;;3.20;1.40;;;;;;;17.03;100.00;100317.47;5108435;28;20044;-49
2023/07/13 05:23:45;;;;;;;1.20;0.98;;;;;;;17.04;100.00;100320.97;5098583;28;20135;-48
2023/07/13 05:26:10;;;;;;;4.60;1.55;;;;;;;17.00;100.00;100319.75;5108589;28;20400;-51
2023/07/13 05:28:36;;;;;;;1.90;1.40;;;;;;;17.04;98.63;100319.13;5108345;28;20032;-50
2023/07/13 05:31:02;;;;;;;1.90;1.10;;;;;;;17.04;98.69;100316.41;5108517;28;20040;-49
2023/07/13 05:33:27;;;;;;;1.33;1.13;;;;;;;17.16;98.83;100321.16;5097502;28;20036;-53
2023/07/13 05:35:53;;;;;;;1.48;1.25;;;;;;;17.17;98.40;100328.16;5094955;28;20397;-48
2023/07/13 05:38:19;;;;;;;4.00;1.73;;;;;;;17.22;97.82;100331.06;5094673;28;20040;-49
2023/07/13 05:40:46;;;;;;;1.65;1.40;;;;;;;17.18;97.71;100329.81;5094660;28;20089;-50
2023/07/13 05:43:12;;;;;;;1.98;1.55;;;;;;;17.23;98.54;100333.53;5094859;28;20035;-48
2023/07/13 05:45:37;;;;;;;5.60;1.70;;;;;;;17.28;98.72;100335.59;5094709;28;20027;-48
2023/07/13 05:48:03;;;;;;;2.33;1.58;;;;;;;17.30;98.77;100333.50;5094851;28;20511;-48
2023/07/13 05:50:28;;;;;;;1.33;1.20;;;;;;;17.38;98.76;100340.50;5094264;28;20093;-50
2023/07/13 05:52:54;;;;;;;3.28;1.30;;;;;;;17.44;97.44;100347.69;5094606;28;20123;-47
2023/07/13 05:55:19;;;;;;;1.90;1.33;;;;;;;17.54;96.41;100356.13;5094482;28;20537;-48
2023/07/13 05:57:45;;;;;;;1.83;1.48;;;;;;;17.57;94.89;100356.53;5094564;28;20451;-50
2023/07/13 06:00:11;;;;;;;3.50;1.70;;;;;;;17.57;93.70;100361.91;5094163;28;20362;-53
2023/07/13 06:02:39;;;;;;;2.35;1.35;;;;;;;17.71;92.95;100362.69;5094368;28;20044;-51
2023/07/13 06:05:05;;;;;;;2.20;1.30;;;;;;;17.83;92.55;100360.97;5094443;28;20036;-50
2023/07/13 06:07:30;;;;;;;3.13;1.90;;;;;;;17.92;91.51;100360.69;5094259;28;20446;-52
2023/07/13 06:09:56;;;;;;;2.13;1.50;;;;;;;18.04;89.26;100367.84;5094109;28;20044;-50
2023/07/13 06:12:21;;;;;;;1.95;1.40;;;;;;;18.30;88.05;100374.06;5094080;28;20392;-48
2023/07/13 06:14:47;;;;;;;4.80;1.52;;;;;;;18.34;86.73;100368.03;5094196;28;20046;-49
2023/07/13 06:17:12;;;;;;;2.63;1.40;;;;;;;18.46;85.45;100373.53;5094347;28;20078;-52
2023/07/13 06:19:38;;;;;;;2.60;1.35;;;;;;;18.49;83.54;100374.94;5093810;28;20040;-48
2023/07/13 06:22:04;;;;;;;3.40;1.30;;;;;;;18.53;83.63;100381.56;5092722;28;20059;-50
2023/07/13 06:24:29;;;;;;;1.17;1.00;;;;;;;18.51;83.63;100387.16;5093789;28;20036;-51
2023/07/13 06:26:54;;;;;;;3.20;1.20;;;;;;;18.56;82.22;100383.78;5093963;28;20032;-48
2023/07/13 06:29:20;;;;;;;1.70;1.30;;;;;;;18.58;83.44;100397.88;5093612;28;20506;-49
2023/07/13 06:31:45;;;;;;;1.38;1.20;;;;;;;18.57;85.41;100396.22;5093830;28;20040;-48
2023/07/13 06:34:10;;;;;;;2.10;1.17;;;;;;;18.58;84.19;100403.25;5093846;28;20043;-48
2023/07/13 06:36:38;;;;;;;2.30;1.23;;;;;;;18.64;82.26;100400.50;5093846;28;20040;-47
2023/07/13 06:39:03;;;;;;;4.32;2.28;;;;;;;18.70;82.88;100398.81;5093397;28;20082;-49
2023/07/13 06:41:30;;;;;;;1.88;0.90;;;;;;;18.78;83.80;100397.72;5093703;28;20452;-51
2023/07/13 06:43:57;;;;;;;1.75;1.30;;;;;;;18.83;83.22;100404.09;5091034;28;20113;-48
2023/07/13 06:46:22;;;;;;;1.67;1.10;;;;;;;18.96;81.51;100403.13;5093421;28;20093;-49
2023/07/13 06:48:48;;;;;;;6.05;1.02;;;;;;;19.03;78.30;100408.44;5092678;28;20052;-50
2023/07/13 06:51:14;;;;;;;4.97;1.05;;;;;;;19.13;79.33;100414.16;5093344;28;20050;-49
2023/07/13 06:53:39;;;;;;;3.10;1.23;;;;;;;19.22;75.87;100410.09;5093323;28;20053;-50
2023/07/13 06:56:05;;;;;;;2.80;1.55;;;;;;;19.28;76.38;100405.69;5093138;28;20645;-49
2023/07/13 06:58:31;;;;;;;3.15;1.95;;;;;;;19.39;75.75;100407.63;5093066;28;20036;-49
2023/07/13 07:00:56;;;;;;;2.95;1.63;;;;;;;19.41;77.20;100410.91;5093216;28;20039;-49
2023/07/13 07:03:21;;;;;;;2.72;1.48;;;;;;;19.46;76.78;100414.59;5093331;28;20055;-54
2023/07/13 07:05:47;;;;;;;5.93;1.63;;;;;;;19.51;74.96;100406.63;5093233;28;20036;-49
2023/07/13 07:08:13;;;;;;;2.40;1.20;;;;;;;19.60;75.45;100412.56;5093052;28;20040;-49
2023/07/13 07:10:38;;;;;;;2.83;1.15;;;;;;;19.68;74.30;100412.25;5092794;28;20042;-50
2023/07/13 07:13:04;;;;;;;1.17;1.00;;;;;;;19.82;74.53;100428.25;5093162;28;20090;-48
2023/07/13 07:15:29;;;;;;;2.42;1.27;;;;;;;19.79;73.94;100422.28;5093076;28;20043;-48
2023/07/13 07:17:55;;;;;;;3.08;1.60;;;;;;;20.01;73.00;100432.56;5092961;28;20034;-48
2023/07/13 07:20:21;;;;;;;2.25;1.00;;;;;;;20.13;71.73;100419.91;5092645;28;20044;-48
2023/07/13 07:22:46;;;;;;;3.13;1.35;;;;;;;20.25;70.57;100418.06;5092781;28;20047;-53
2023/07/13 07:25:12;;;;;;;1.25;1.00;;;;;;;20.31;69.26;100427.13;5092776;28;20063;-49
2023/07/13 07:27:38;;;;;;;2.15;1.02;;;;;;;20.28;69.78;100417.59;5092781;28;20128;-48
2023/07/13 07:30:04;;;;;;;2.05;1.40;;;;;;;20.41;66.72;100418.41;5092545;28;20043;-65
2023/07/13 07:32:30;;;;;;;3.67;1.30;;;;;;;20.51;67.29;100421.41;5092687;28;20048;-63
2023/07/13 07:34:57;;;;;;;1.70;1.40;;;;;;;20.57;66.56;100420.47;5092726;28;20126;-63
2023/07/13 07:37:22;;;;;;;2.30;1.20;;;;;;;20.66;65.36;100431.75;5092624;28;20024;-63
2023/07/13 07:39:48;;;;;;;2.05;1.20;;;;;;;20.82;62.61;100431.06;5092317;28;20601;-63
2023/07/13 07:42:13;;;;;;;4.03;1.10;;;;;;;20.88;62.79;100426.59;5092572;28;20381;-63
2023/07/13 07:44:40;;;;;;;2.25;1.30;;;;;;;20.99;61.19;100436.56;5092680;28;20035;-64
2023/07/13 07:47:06;;;;;;;2.35;1.27;;;;;;;21.01;63.57;100435.28;5092540;28;20039;-62
2023/07/13 07:49:32;;;;;;;2.50;1.17;;;;;;;21.19;60.17;100433.50;5092274;28;20080;-64
2023/07/13 07:51:57;;;;;;;3.20;1.30;;;;;;;21.26;58.72;100434.22;5092240;28;20078;-63
2023/07/13 07:54:23;;;;;;;1.90;1.15;;;;;;;21.40;58.52;100433.72;5092514;28;20050;-63
2023/07/13 07:56:48;;;;;;;2.15;1.13;;;;;;;21.45;56.86;100432.16;5092384;28;20056;-64
2023/07/13 07:59:14;;;;;;;1.58;1.23;;;;;;;21.46;56.69;100434.66;5092273;28;20036;-64
2023/07/13 08:01:39;;;;;;;2.53;1.05;;;;;;;21.72;56.37;100435.97;5091236;28;20516;-64
2023/07/13 08:04:04;;;;;;;3.13;1.35;;;;;;;21.73;58.49;100445.75;5092744;28;20055;-64
2023/07/13 08:06:33;;;;;;;2.78;1.45;;;;;;;21.90;59.79;100435.75;5092524;28;20047;-64
2023/07/13 08:08:59;;;;;;;7.03;1.55;;;;;;;21.90;61.15;100435.75;5092693;28;20039;-62
2023/07/13 08:11:24;;;;;;;1.08;1.02;;;;;;;21.97;59.23;100434.78;5092364;28;20131;-64
2023/07/13 08:13:50;;;;;;;2.97;1.23;;;;;;;22.23;53.18;100434.19;5092512;28;20161;-64
2023/07/13 08:16:16;;;;;;;5.53;1.67;;;;;;;22.25;54.71;100437.50;5092157;28;20416;-64
2023/07/13 08:18:42;;;;;;;1.33;1.17;;;;;;;22.31;53.17;100435.69;5092062;28;20100;-64
2023/07/13 08:21:08;;;;;;;5.30;1.48;;;;;;;22.41;50.91;100433.97;5092110;28;20051;-64
2023/07/13 08:23:35;;;;;;;3.10;1.00;;;;;;;22.53;49.52;100423.03;5092092;28;20066;-64
2023/07/13 08:26:01;;;;;;;3.28;1.13;;;;;;;22.68;48.69;100427.84;5092053;28;20046;-64
2023/07/13 08:28:27;;;;;;;1.50;1.02;;;;;;;22.76;48.86;100435.59;5091795;28;20369;-64
2023/07/13 08:30:52;;;;;;;1.83;1.05;;;;;;;22.83;46.78;100438.97;5091850;28;20097;-63
2023/07/13 08:33:19;;;;;;;3.47;1.10;;;;;;;22.83;48.24;100433.53;5092046;28;20119;-64
2023/07/13 08:35:48;;;;;;;2.00;1.25;;;;;;;22.97;49.10;100432.13;5091963;28;20093;-64
2023/07/13 08:38:14;;;;;;;1.80;0.90;;;;;;;23.17;49.24;100438.91;5092022;28;20097;-64
2023/07/13 08:40:41;;;;;;;3.63;1.42;;;;;;;23.11;48.03;100435.31;5091774;28;20397;-64
2023/07/13 08:43:13;;;;;;;2.08;1.63;;;;;;;23.23;47.01;100427.88;5091897;28;20043;-64
2023/07/13 08:45:44;;;;;;;0.93;0.80;;;;;;;23.13;44.49;100432.34;5091804;28;20039;-64
2023/07/13 08:48:28;;;;;;;1.40;0.77;;;;;;;23.33;45.91;100429.88;5092075;28;20043;-64
2023/07/13 08:51:04;;;;;;;2.45;0.90;;;;;;;23.37;45.34;100424.75;5091889;28;20481;-64
2023/07/13 08:53:38;;;;;;;1.77;1.23;;;;;;;23.51;45.47;100426.00;5092280;28;20111;-64
2023/07/13 08:56:09;;;;;;;1.65;1.02;;;;;;;23.66;46.27;100436.25;5091870;28;20077;-63
2023/07/13 08:58:36;;;;;;;1.15;0.82;;;;;;;23.73;43.83;100431.44;5091620;28;20066;-64
2023/07/13 09:01:01;;;;;;;2.55;1.05;;;;;;;23.82;43.77;100427.22;5091893;28;20389;-64
2023/07/13 09:03:36;;;;;;;2.00;1.17;;;;;;;23.94;43.67;100425.16;5092054;28;20032;-64
2023/07/13 09:06:03;;;;;;;1.25;0.80;;;;;;;24.03;42.54;100429.03;5091710;28;20071;-64
2023/07/13 09:08:53;;;;;;;3.90;1.17;;;;;;;24.15;41.39;100436.22;5094269;28;20028;-63
2023/07/13 09:11:49;;;;;;;0.95;0.80;;;;;;;24.41;41.79;100432.69;5095638;28;20138;-62
2023/07/13 09:14:37;;;;;;;2.50;1.10;;;;;;;24.30;42.50;100420.84;5095807;28;20047;-63
2023/07/13 09:17:05;;;;;;;1.88;1.20;;;;;;;24.60;42.09;100427.66;5095344;28;20188;-62
2023/07/13 09:19:35;;;;;;;2.42;1.10;;;;;;;24.55;41.12;100433.88;5095185;28;20102;-63
2023/07/13 09:22:04;;;;;;;1.85;1.08;;;;;;;24.68;41.02;100431.78;5095019;28;20481;-63
2023/07/13 09:24:37;;;;;;;4.28;1.20;;;;;;;24.60;41.02;100423.03;5095208;28;20105;-63
2023/07/13 09:27:14;;;;;;;4.22;1.20;;;;;;;24.97;43.84;100429.50;5095103;28;20028;-62
2023/07/13 09:29:45;;;;;;;1.33;1.08;;;;;;;25.09;43.14;100428.25;5095230;28;20389;-63
2023/07/13 09:32:14;;;;;;;3.55;1.30;;;;;;;25.02;39.38;100421.34;5093711;28;20040;-63
2023/07/13 09:34:40;;;;;;;2.80;1.20;;;;;;;25.11;40.28;100428.81;5094927;28;20032;-64
2023/07/13 09:37:05;;;;;;;1.77;1.20;;;;;;;25.31;42.11;100435.44;5094782;28;20040;-63
2023/07/13 09:39:41;;;;;;;1.90;1.00;;;;;;;25.34;41.84;100424.00;5094738;28;20122;-63
2023/07/13 09:42:15;;;;;;;3.90;1.30;;;;;;;25.55;42.17;100424.88;5094869;28;20101;-64
2023/07/13 09:44:47;;;;;;;1.92;1.30;;;;;;;25.73;41.30;100427.16;5094775;28;20032;-63
2023/07/13 09:47:18;;;;;;;3.60;1.58;;;;;;;25.86;44.37;100428.53;5094680;28;20089;-63
2023/07/13 09:49:44;;;;;;;2.60;1.17;;;;;;;25.87;41.21;100427.44;5094360;28;20063;-63
2023/07/13 09:52:15;;;;;;;2.60;1.05;;;;;;;26.16;39.79;100422.31;5094488;28;20036;-62
2023/07/13 09:54:48;;;;;;;2.53;1.35;;;;;;;26.34;39.46;100429.13;5094803;28;20047;-62
2023/07/13 09:57:16;;;;;;;2.47;1.10;;;;;;;26.37;38.84;100429.41;5094548;28;20042;-62
2023/07/13 09:59:52;;;;;;;4.15;1.20;;;;;;;26.59;37.43;100434.59;5094261;28;20043;-63
2023/07/13 10:02:33;;;;;;;2.30;1.30;;;;;;;26.90;38.17;100429.91;5093278;28;20135;-62
2023/07/13 10:04:58;;;;;;;2.22;1.00;;;;;;;27.05;38.18;100426.34;5094389;28;20534;-63
2023/07/13 10:07:24;;;;;;;3.70;1.08;;;;;;;27.30;37.96;100420.78;5094255;28;20048;-63
2023/07/13 10:09:54;;;;;;;2.72;1.35;;;;;;;27.52;36.23;100419.63;5094149;28;20043;-63
2023/07/13 10:12:19;;;;;;;1.63;1.15;;;;;;;27.61;37.38;100428.03;5094272;28;20039;-64
2023/07/13 10:14:45;;;;;;;1.17;1.00;;;;;;;27.79;35.66;100422.75;5094595;28;20028;-64
2023/07/13 10:17:13;;;;;;;2.30;1.20;;;;;;;27.70;34.62;100421.72;5094319;28;20036;-65
2023/07/13 10:19:43;;;;;;;2.05;1.20;;;;;;;27.92;33.63;100417.75;5093752;28;20031;-64
2023/07/13 10:22:32;;;;;;;3.42;1.17;;;;;;;28.04;35.29;100418.22;5094116;28;20032;-65
2023/07/13 10:24:59;;;;;;;4.32;1.58;;;;;;;28.31;34.55;100423.25;5094125;28;20477;-64
2023/07/13 10:27:35;;;;;;;2.42;1.40;;;;;;;28.47;35.33;100418.44;5094026;28;20039;-64
2023/07/13 10:30:29;;;;;;;4.95;1.65;;;;;;;28.13;35.22;100422.78;5093770;28;20101;-63
2023/07/13 10:32:59;;;;;;;6.70;1.77;;;;;;;28.10;35.56;100415.16;5094231;28;20409;-63
2023/07/13 10:35:28;;;;;;;1.60;1.27;;;;;;;28.33;34.23;100413.63;5093855;28;20059;-63
2023/07/13 10:38:06;;;;;;;4.03;1.45;;;;;;;28.15;33.31;100417.03;5093811;28;20039;-63
2023/07/13 10:40:42;;;;;;;2.33;1.30;;;;;;;28.52;32.80;100421.13;5093539;28;20044;-65
2023/07/13 10:43:31;;;;;;;4.40;1.97;;;;;;;28.83;35.34;100422.47;5093797;28;20044;-64
2023/07/13 10:45:59;;;;;;;3.60;1.60;;;;;;;28.80;33.61;100419.47;5093596;28;20124;-64
2023/07/13 10:48:25;;;;;;;2.35;1.38;;;;;;;28.69;33.85;100418.78;5093416;28;20118;-63
2023/07/13 10:50:53;;;;;;;1.95;1.23;;;;;;;28.77;35.46;100422.81;5093552;28;20136;-63
2023/07/13 10:53:27;;;;;;;2.10;1.33;;;;;;;28.92;32.89;100408.97;5093479;28;20097;-64
2023/07/13 10:55:53;;;;;;;3.15;1.55;;;;;;;29.27;33.70;100418.69;5093386;28;20085;-64
2023/07/13 10:58:31;;;;;;;2.05;1.80;;;;;;;29.14;34.94;100411.97;5093197;28;20028;-64
2023/07/13 11:01:05;;;;;;;3.63;1.40;;;;;;;29.68;31.80;100409.97;5093299;28;20060;-64
2023/07/13 11:03:34;;;;;;;2.15;1.60;;;;;;;29.99;34.29;100407.53;5093358;28;20082;-65
2023/07/13 11:06:21;;;;;;;4.00;1.45;;;;;;;30.19;32.93;100404.53;5093319;28;20036;-64
2023/07/13 11:08:46;;;;;;;6.60;1.48;;;;;;;30.42;30.81;100400.00;5092993;28;20040;-62
2023/07/13 11:11:24;;;;;;;3.50;1.70;;;;;;;30.64;31.71;100402.06;5093156;28;20043;-63
2023/07/13 11:13:49;;;;;;;4.07;1.63;;;;;;;30.86;30.03;100393.19;5093199;28;20535;-64
2023/07/13 11:16:18;;;;;;;3.35;1.67;;;;;;;30.74;29.86;100395.59;5092960;28;20060;-63
2023/07/13 11:19:01;;;;;;;3.47;1.45;;;;;;;31.20;30.94;100403.75;5092737;28;20031;-63
2023/07/13 11:21:30;;;;;;;5.18;1.77;;;;;;;30.82;31.11;100394.91;5092972;28;20035;-64
2023/07/13 11:24:15;;;;;;;5.72;1.58;;;;;;;31.14;31.63;100401.41;5092888;28;20438;-63
2023/07/13 11:26:46;;;;;;;4.15;1.50;;;;;;;31.43;31.16;100395.59;5092867;28;20075;-63
2023/07/13 11:29:17;;;;;;;2.38;1.23;;;;;;;31.36;32.46;100401.50;5092543;28;20047;-62
2023/07/13 11:31:50;;;;;;;5.28;1.63;;;;;;;31.28;29.68;100397.56;5092282;28;20477;-63
2023/07/13 11:34:23;;;;;;;3.67;1.48;;;;;;;31.38;30.76;100393.78;5092852;28;20606;-62
2023/07/13 11:36:49;;;;;;;2.42;1.27;;;;;;;31.53;28.71;100401.69;5092809;28;20073;-63
2023/07/13 11:39:30;;;;;;;3.97;1.47;;;;;;;32.07;28.38;100394.38;5092385;28;20523;-63
2023/07/13 11:41:59;;;;;;;3.80;1.70;;;;;;;32.04;27.45;100395.03;5092980;28;20500;-63
2023/07/13 11:44:26;;;;;;;3.05;1.52;;;;;;;31.92;28.28;100396.72;5092764;28;20134;-63
2023/07/13 11:47:10;;;;;;;3.30;1.88;;;;;;;32.17;28.48;100387.81;5092990;28;20039;-63
2023/07/13 11:49:44;;;;;;;5.00;1.58;;;;;;;31.97;26.63;100393.84;5080981;28;20035;-63
2023/07/13 11:52:17;;;;;;;3.80;1.90;;;;;;;31.30;28.52;100394.50;5083194;28;20079;-63
2023/07/13 11:54:56;;;;;;;3.67;1.70;;;;;;;31.95;28.52;100382.31;5081955;28;20032;-64
2023/07/13 11:57:33;;;;;;;4.38;1.40;;;;;;;31.58;27.42;100390.56;5081709;28;20040;-63
2023/07/13 12:00:11;;;;;;;2.45;1.45;;;;;;;31.75;26.75;100381.63;5081018;28;20036;-63
2023/07/13 12:02:42;;;;;;;1.92;1.33;;;;;;;30.86;28.55;100381.38;5080903;28;20487;-62
2023/07/13 12:05:12;;;;;;;4.25;1.70;;;;;;;30.61;28.98;100377.94;5081080;28;20047;-63
2023/07/13 12:07:38;;;;;;;2.75;1.48;;;;;;;30.76;29.11;100376.88;5082594;28;20040;-62
2023/07/13 12:10:30;;;;;;;4.05;1.75;;;;;;;31.07;27.98;100385.31;5081569;28;20032;-64
2023/07/13 12:13:02;;;;;;;3.25;1.63;;;;;;;31.43;28.03;100382.66;5082939;28;20473;-63
2023/07/13 12:15:40;;;;;;;2.55;1.83;;;;;;;31.44;28.19;100373.28;5081218;28;20404;-62
2023/07/13 12:18:14;;;;;;;1.92;1.58;;;;;;;31.73;29.00;100380.31;5081948;28;20132;-64
2023/07/13 12:20:40;;;;;;;3.70;2.17;;;;;;;32.07;29.27;100379.81;5080860;28;20085;-63
2023/07/13 12:23:20;;;;;;;5.20;2.22;;;;;;;32.23;29.32;100381.06;5081359;28;20028;-63
2023/07/13 12:25:46;;;;;;;3.22;1.50;;;;;;;32.60;29.63;100382.59;5081871;28;20036;-63
2023/07/13 12:28:28;;;;;;;5.27;1.70;;;;;;;32.66;28.73;100381.31;5080353;28;20074;-63
2023/07/13 12:30:58;;;;;;;2.50;1.35;;;;;;;32.85;29.40;100377.47;5082924;28;20043;-63
2023/07/13 12:33:28;;;;;;;5.43;1.88;;;;;;;32.43;27.02;100382.50;5081546;28;20094;-64
2023/07/13 12:35:53;;;;;;;2.85;1.67;;;;;;;31.92;27.54;100382.94;5080280;28;20086;-63
2023/07/13 12:38:21;;;;;;;3.90;2.00;;;;;;;31.00;29.05;100373.91;5081881;28;20028;-64
2023/07/13 12:40:50;;;;;;;3.92;1.42;;;;;;;30.48;29.41;100379.56;5080714;28;20039;-63
2023/07/13 12:43:16;;;;;;;2.78;1.70;;;;;;;30.05;29.21;100380.81;5082409;28;20051;-64
2023/07/13 12:46:05;;;;;;;4.03;1.85;;;;;;;29.49;30.60;100370.69;5084052;28;20560;-63
2023/07/13 12:48:41;;;;;;;2.35;1.30;;;;;;;29.59;29.72;100362.31;5084720;28;20040;-63
2023/07/13 12:51:11;;;;;;;4.00;1.50;;;;;;;30.48;30.25;100379.56;5083638;28;20533;-64
2023/07/13 12:53:41;;;;;;;2.95;1.60;;;;;;;30.95;29.40;100383.09;5085491;28;20036;-64
2023/07/13 12:56:18;;;;;;;2.50;1.30;;;;;;;30.85;27.14;100377.00;5083990;28;20028;-64
2023/07/13 12:58:46;;;;;;;5.72;1.90;;;;;;;30.08;27.96;100380.25;5082827;28;20025;-64
2023/07/13 13:01:13;;;;;;;3.75;1.77;;;;;;;29.94;28.76;100375.50;5080177;28;20071;-64
2023/07/13 13:04:01;;;;;;;2.80;1.48;;;;;;;30.17;30.01;100379.28;5068361;28;20120;-62
2023/07/13 13:06:29;;;;;;;2.58;1.38;;;;;;;30.00;29.96;100387.22;5085029;28;20032;-63
2023/07/13 13:08:59;;;;;;;2.00;1.40;;;;;;;30.40;30.01;100383.00;5082357;28;20044;-63
2023/07/13 13:11:27;;;;;;;3.30;1.40;;;;;;;30.94;29.98;100386.97;5083402;28;20044;-64
2023/07/13 13:13:53;;;;;;;5.15;1.70;;;;;;;30.41;29.89;100387.38;5084084;28;20040;-64
2023/07/13 13:16:34;;;;;;;5.07;1.80;;;;;;;30.71;30.08;100379.69;5083453;28;20034;-63
2023/07/13 13:19:17;;;;;;;7.22;1.85;;;;;;;31.12;28.83;100390.72;5083607;28;20028;-63
2023/07/13 13:21:44;;;;;;;2.88;1.73;;;;;;;30.57;27.69;100378.84;5082716;28;20575;-63
2023/07/13 13:24:16;;;;;;;3.85;1.50;;;;;;;29.99;28.79;100377.34;5084501;28;20117;-64
2023/07/13 13:26:43;;;;;;;2.83;1.33;;;;;;;29.63;29.77;100377.91;5069017;28;20036;-64
2023/07/13 13:29:14;;;;;;;3.72;1.70;;;;;;;29.79;31.01;100372.19;5082969;28;20028;-63
2023/07/13 13:31:39;;;;;;;3.65;1.88;;;;;;;29.72;30.75;100380.78;5082532;28;20482;-64
2023/07/13 13:34:09;;;;;;;6.15;1.70;;;;;;;29.70;30.70;100375.59;5084809;28;20189;-64
2023/07/13 13:36:35;;;;;;;2.60;1.45;;;;;;;29.81;30.28;100367.22;5083214;28;20109;-65
2023/07/13 13:39:01;;;;;;;2.90;1.45;;;;;;;29.29;31.83;100374.53;5082150;28;20127;-62
2023/07/13 13:41:27;;;;;;;4.40;1.50;;;;;;;28.92;29.75;100376.06;5084383;28;20185;-63
2023/07/13 13:43:53;;;;;;;4.07;1.50;;;;;;;28.56;30.44;100364.63;5083615;28;20549;-63
2023/07/13 13:46:29;;;;;;;2.20;1.30;;;;;;;28.74;31.35;100372.13;5082533;28;20039;-62
2023/07/13 13:48:56;;;;;;;3.03;1.77;;;;;;;28.60;30.17;100362.97;5082939;28;20036;-63
2023/07/13 13:51:24;;;;;;;2.05;1.17;;;;;;;28.44;30.34;100366.97;5084121;28;20500;-63
2023/07/13 13:53:50;;;;;;;1.83;1.40;;;;;;;28.38;31.33;100375.25;5081552;28;20048;-63
2023/07/13 13:56:17;;;;;;;3.35;1.70;;;;;;;28.31;33.38;100372.03;5074530;28;20044;-63
2023/07/13 13:58:43;;;;;;;3.85;1.70;;;;;;;28.27;32.71;100372.84;5074274;28;20354;-64
2023/07/13 14:01:20;;;;;;;3.38;1.52;;;;;;;28.04;32.88;100377.16;5074625;28;20031;-63
2023/07/13 14:03:48;;;;;;;4.72;1.58;;;;;;;28.01;33.27;100367.59;5074391;28;20040;-63
2023/07/13 14:06:15;;;;;;;5.00;1.70;;;;;;;27.99;32.18;100368.97;5074189;28;20090;-63
2023/07/13 14:08:41;;;;;;;3.08;1.77;;;;;;;27.68;33.21;100368.34;5073978;28;20040;-63
2023/07/13 14:11:16;;;;;;;2.53;1.50;;;;;;;27.91;32.29;100366.84;5073855;28;20129;-63
2023/07/13 14:13:46;;;;;;;4.20;1.27;;;;;;;28.01;31.49;100372.25;5074106;28;20063;-63
2023/07/13 14:16:19;;;;;;;5.70;1.60;;;;;;;27.97;33.38;100360.22;5074255;28;20024;-62
2023/07/13 14:18:45;;;;;;;4.45;1.55;;;;;;;27.96;32.89;100364.06;5072522;28;20115;-62
2023/07/13 14:21:20;;;;;;;4.30;1.60;;;;;;;27.91;33.12;100366.84;5073873;28;20033;-63
2023/07/13 14:23:46;;;;;;;3.08;1.58;;;;;;;28.05;33.89;100367.84;5074332;28;20037;-63
2023/07/13 14:26:19;;;;;;;3.77;1.60;;;;;;;28.06;32.71;100369.47;5073815;28;20047;-62
2023/07/13 14:28:48;;;;;;;3.33;1.50;;;;;;;27.97;32.86;100376.66;5073334;28;20275;-63
2023/07/13 14:31:15;;;;;;;4.43;1.27;;;;;;;27.81;32.82;100367.75;5072221;28;20060;-63
2023/07/13 14:33:41;;;;;;;3.28;1.60;;;;;;;27.94;33.69;100371.75;5073698;28;20052;-63
2023/07/13 14:36:31;;;;;;;3.88;1.65;;;;;;;27.87;33.53;100371.25;5073467;28;20510;-63
2023/07/13 14:38:58;;;;;;;4.00;1.40;;;;;;;27.62;32.51;100369.47;5068245;28;20056;-63
2023/07/13 14:41:24;;;;;;;3.55;1.80;;;;;;;27.68;32.78;100366.47;5073808;28;20389;-63
2023/07/13 14:43:50;;;;;;;1.97;1.40;;;;;;;27.53;33.73;100380.22;5073488;28;20174;-64
2023/07/13 14:46:28;;;;;;;2.45;1.40;;;;;;;27.52;32.86;100375.84;5073317;28;20064;-62
2023/07/13 14:49:06;;;;;;;3.17;1.20;;;;;;;27.61;33.11;100376.06;5073183;28;20048;-62
2023/07/13 14:51:33;;;;;;;2.50;1.50;;;;;;;27.58;32.58;100377.44;5073019;28;20040;-61
2023/07/13 14:54:03;;;;;;;4.57;1.45;;;;;;;27.54;33.48;100377.19;5073236;28;20085;-62
2023/07/13 14:56:29;;;;;;;10.20;3.05;;;;;;;27.56;33.10;100379.63;5073028;28;20086;-62
2023/07/13 14:58:54;;;;;;;2.67;1.25;;;;;;;27.49;32.16;100376.41;5072846;28;20037;-62
2023/07/13 15:01:21;;;;;;;2.30;1.55;;;;;;;27.46;34.07;100376.97;5073078;28;20490;-63
2023/07/13 15:03:51;;;;;;;3.28;1.50;;;;;;;27.50;32.98;100386.22;5073064;28;20040;-62
2023/07/13 15:06:18;;;;;;;37.05;15.20;;;;;;;27.37;34.03;100376.72;5072108;28;20032;-63
2023/07/13 15:08:44;;;;;;;;;;;;;;;27.29;34.22;100380.88;5073166;28;20040;-63
2023/07/13 15:11:13;;;;;;;4.50;1.60;;;;;;;27.23;34.04;100373.78;5072957;28;19916;-62
2023/07/13 15:13:39;;;;;;;2.45;1.70;;;;;;;27.10;33.11;100379.88;5072638;28;20036;-63
2023/07/13 15:16:15;;;;;;;5.40;1.50;;;;;;;27.09;34.34;100377.41;5072758;28;20481;-63
2023/07/13 15:18:41;;;;;;;3.22;1.85;;;;;;;27.08;35.21;100373.06;5072633;28;20040;-63
2023/07/13 15:21:13;;;;;;;2.55;1.35;;;;;;;27.02;34.20;100372.22;5072589;28;20024;-62
2023/07/13 15:23:39;;;;;;;4.20;1.92;;;;;;;26.91;34.16;100370.63;5072679;28;20043;-63
2023/07/13 15:26:06;;;;;;;3.92;1.25;;;;;;;27.03;34.69;100368.38;5072521;28;20049;-63
2023/07/13 15:28:32;;;;;;;2.78;1.40;;;;;;;27.02;35.05;100374.94;5072353;28;20127;-63
2023/07/13 15:30:57;;;;;;;7.70;1.67;;;;;;;27.02;33.46;100367.56;5072419;28;20111;-63
2023/07/13 15:33:27;;;;;;;2.10;1.52;;;;;;;27.06;33.36;100367.88;5072565;28;20401;-63
2023/07/13 15:35:53;;;;;;;3.40;1.70;;;;;;;27.14;32.33;100359.09;5072439;28;20037;-62
2023/07/13 15:38:29;;;;;;;5.13;2.20;;;;;;;27.02;32.95;100369.50;5072174;28;20075;-63
2023/07/13 15:40:56;;;;;;;3.83;1.67;;;;;;;26.93;33.33;100362.94;5071118;28;20508;-63
2023/07/13 15:43:21;;;;;;;2.58;1.75;;;;;;;27.04;34.79;100359.09;5072378;28;20106;-63
2023/07/13 15:45:48;;;;;;;3.38;1.58;;;;;;;26.72;33.86;100356.72;5072267;28;20481;-63
2023/07/13 15:48:17;;;;;;;4.38;1.65;;;;;;;26.78;34.97;100350.16;5072345;28;20462;-63
2023/07/13 15:50:48;;;;;;;3.88;1.83;;;;;;;26.73;33.67;100361.94;5072050;28;20442;-63
2023/07/13 15:53:19;;;;;;;4.55;1.50;;;;;;;26.72;33.48;100362.19;5072206;28;20072;-64
2023/07/13 15:55:45;;;;;;;3.33;1.88;;;;;;;26.77;33.89;100357.53;5072035;28;20044;-63